Latest Weather Observations for Albion Park

IDN60801

Issued at 2:05 pm EST Saturday 2 August 2014 (issued every 30 minutes, with the page automatically refreshed every 10 minutes)

About weather observations | Map of weather stations | Latest weather observations for NSW | Other Formats
Station Details ID: 068241 Name: WOLLONGONG AIRPORT Lat: -34.56 Lon: 150.79 Height: 8.0 m
Data from the previous 72 hours. | See also: Recent months at Albion Park
Date/Time
EST
Temp
°C
App
Temp
°C
Dew
Point
Rel
Hum
%
Delta-T
°C
Wind Press
QNH
hPa
Press
MSL
hPa
Rain
since 9 am
mm
Dir
 
Spd
km/h
Gust
km/h
Spd
kts
Gust
kts
02/02:00pm 15.1 8.1 -0.6 34 6.5 S 26 35 14 19 1026.4 1026.4 0.0
02/01:30pm 14.6 7.1 -1.5 33 6.5 S 28 41 15 22 1025.9 - 0.0
02/01:00pm 14.7 8.2 -2.2 31 6.7 SSE 22 32 12 17 1025.7 1025.7 0.0
02/12:30pm 14.7 6.7 -2.2 31 6.8 S 30 37 16 20 1025.7 - 0.0
02/12:00pm 14.0 6.9 -1.6 34 6.3 SSW 26 37 14 20 1025.9 1025.9 0.0
02/11:31am 13.7 6.2 -1.5 35 6.1 SSW 28 46 15 25 1026.0 - 0.0
02/11:30am 13.7 5.8 -1.5 35 6.1 SSW 30 46 16 25 1026.0 - 0.0
02/11:20am 13.7 6.2 -1.5 35 6.1 SSW 28 48 15 26 1026.1 - 0.0
02/11:00am 13.4 7.7 -1.0 37 5.8 SSW 19 32 10 17 1026.1 1026.1 0.0
02/10:30am 12.7 6.7 -1.6 37 5.7 SW 20 28 11 15 1025.9 - 0.0
02/10:00am 12.1 4.5 -2.1 37 5.5 WSW 28 37 15 20 1025.5 1025.5 0.0
02/09:30am 11.6 4.8 -1.5 40 5.2 WSW 24 37 13 20 1025.3 - 0.0
02/09:00am 11.1 4.4 -1.3 42 4.9 W 24 35 13 19 1024.6 1024.6 0.0
02/08:30am 10.3 3.6 -1.1 45 4.5 W 24 37 13 20 1024.1 - 0.0
02/08:00am 9.2 2.6 -0.7 50 3.9 W 24 39 13 21 1023.2 1023.2 0.0
02/07:30am 9.3 1.5 -1.1 48 4.0 WSW 30 41 16 22 1022.3 - 0.0
02/07:00am 7.4 0.4 -0.8 56 3.1 WSW 26 35 14 19 1021.8 1021.8 0.0
02/06:30am 7.8 -1.3 -0.4 56 3.2 WSW 37 46 20 25 1021.1 - 0.0
02/06:00am 7.9 -0.7 -0.1 57 3.1 W 35 44 19 24 1020.5 1020.5 0.0
02/05:30am 8.0 -1.4 0.0 57 3.1 WSW 39 54 21 29 1020.0 - 0.0
02/05:00am 8.3 -0.4 -0.2 55 3.3 WSW 35 46 19 25 1019.6 1019.6 0.0
02/04:30am 8.0 -0.1 0.0 57 3.1 WSW 32 44 17 24 1018.8 - 0.0
02/04:10am 8.2 -1.6 -0.3 55 3.3 WSW 41 59 22 32 1018.3 - 0.0
02/04:00am 8.5 -0.5 0.0 55 3.4 WSW 37 54 20 29 1017.9 1017.9 0.0
02/03:30am 8.7 -0.7 -0.1 54 3.5 WSW 39 59 21 32 1017.3 - 0.0
02/03:02am 8.6 -1.6 -0.2 54 3.5 WSW 43 61 23 33 1016.7 - 0.0
02/03:00am 8.8 -1.6 -0.2 53 3.5 WSW 44 61 24 33 1016.7 1016.7 0.0
02/02:30am 8.7 -1.0 0.2 55 3.4 WSW 41 59 22 32 1016.1 - 0.0
02/02:00am 8.5 0.5 0.5 57 3.2 W 32 50 17 27 1016.4 1016.4 0.0
02/01:33am 9.0 -0.3 0.7 56 3.4 W 39 59 21 32 1016.0 - 0.0
02/01:30am 8.8 -0.1 0.8 57 3.2 W 37 52 20 28 1016.0 - 0.0
02/01:00am 8.9 -1.1 0.9 57 3.2 W 43 61 23 33 1015.6 1015.6 0.0
02/12:40am 9.0 -0.3 0.7 56 3.4 W 39 63 21 34 1015.3 - 0.0
02/12:30am 9.0 -0.7 0.7 56 3.4 W 41 56 22 30 1015.2 - 0.0
02/12:00am 9.1 -0.2 0.8 56 3.4 W 39 57 21 31 1014.8 1014.8 0.0
 
Date/Time
EST
Temp
°C
App
Temp
°C
Dew
Point
Rel
Hum
%
Delta-T
°C
Wind Press
QNH
hPa
Press
MSL
hPa
Rain
since 9 am
mm
Dir
 
Spd
km/h
Gust
km/h
Spd
kts
Gust
kts
01/11:30pm 9.1 0.6 0.8 56 3.4 W 35 61 19 33 1014.8 - 0.0
01/11:00pm 9.4 0.5 0.8 55 3.5 WSW 37 57 20 31 1014.7 1014.7 0.0
01/10:30pm 9.3 0.4 0.7 55 3.5 W 37 57 20 31 1014.3 - 0.0
01/10:00pm 9.4 -0.3 0.8 55 3.5 W 41 59 22 32 1013.7 1013.7 0.0
01/09:40pm 9.4 0.5 0.8 55 3.5 W 37 57 20 31 1013.3 - 0.0
01/09:30pm 9.1 1.0 0.8 56 3.4 W 33 50 18 27 1013.5 - 0.0
01/09:18pm 9.2 1.7 0.9 56 3.4 WNW 30 48 16 26 1013.7 - 0.0
01/09:00pm 9.3 2.9 1.0 56 3.4 W 24 41 13 22 1013.9 1013.9 0.0
01/08:30pm 9.7 0.4 0.9 54 3.6 WSW 39 59 21 32 1013.1 - 0.0
01/08:00pm 9.6 0.4 1.0 55 3.5 W 39 61 21 33 1011.8 1011.8 0.0
01/07:30pm 9.5 1.0 1.2 56 3.4 W 35 61 19 33 1011.7 - 0.0
01/07:00pm 9.9 -1.0 1.3 55 3.6 W 48 67 26 36 1011.6 1011.6 0.0
01/06:30pm 10.1 -1.5 2.0 57 3.4 W 52 72 28 39 1010.3 - 0.0
01/06:02pm 10.5 -0.4 1.3 53 3.8 W 48 67 26 36 1009.7 - 0.0
01/06:00pm 10.6 -0.7 1.4 53 3.8 W 50 67 27 36 1009.7 1009.7 0.0
01/05:41pm 11.1 1.1 0.8 49 4.3 W 43 69 23 37 1009.6 - 0.0
01/05:30pm 11.1 0.9 1.1 50 4.2 W 44 61 24 33 1009.9 - 0.0
01/05:00pm 12.0 2.9 -0.8 41 5.2 W 37 56 20 30 1009.3 1009.3 0.0
01/04:30pm 13.2 1.8 -2.3 34 6.1 W 48 70 26 38 1008.5 - 0.0
01/04:00pm 13.7 3.1 -1.5 35 6.1 W 44 67 24 36 1008.0 1008.0 0.0
01/03:35pm 14.3 3.8 -2.6 31 6.7 W 43 76 23 41 1007.4 - 0.0
01/03:30pm 14.6 4.9 -1.9 32 6.7 W 39 57 21 31 1007.6 - 0.0
01/03:00pm 15.1 5.4 -1.9 31 6.9 W 39 57 21 31 1007.5 1007.5 0.0
01/02:34pm 15.3 6.2 -3.6 27 7.4 W 35 61 19 33 1007.4 - 0.0
01/02:30pm 15.5 6.5 -2.9 28 7.3 W 35 50 19 27 1007.3 - 0.0
01/02:00pm 15.3 6.5 -4.1 26 7.5 W 33 52 18 28 1007.1 1007.1 0.0
01/01:30pm 15.5 7.0 -2.9 28 7.3 W 32 59 17 32 1007.5 - 0.0
01/01:01pm 15.2 6.7 -3.2 28 7.3 W 32 50 17 27 1007.4 - 0.0
01/01:00pm 15.2 6.8 -2.7 29 7.2 W 32 48 17 26 1007.4 1007.4 0.0
01/12:30pm 15.1 6.7 -2.8 29 7.1 W 32 50 17 27 1007.7 - 0.0
01/12:00pm 15.2 5.1 -2.2 30 7.0 W 41 59 22 32 1008.1 1008.1 0.0
01/11:32am 14.5 4.1 -1.6 33 6.5 W 43 65 23 35 1008.3 - 0.0
01/11:30am 14.6 4.7 -0.7 35 6.3 W 41 54 22 29 1008.3 - 0.0
01/11:00am 14.5 4.7 -0.4 36 6.2 W 41 54 22 29 1008.3 1008.3 0.0
01/10:40am 14.1 3.8 -0.7 36 6.1 W 43 65 23 35 1008.2 - 0.0
01/10:30am 13.9 3.7 -0.5 37 5.9 WSW 43 56 23 30 1008.2 - 0.0
01/10:00am 15.4 8.4 1.9 40 6.0 W 28 46 15 25 1008.0 1008.0 0.0
01/09:30am 13.9 5.1 1.5 43 5.4 W 37 56 20 30 1007.8 - 0.0
01/09:25am 14.1 6.2 1.1 41 5.6 W 32 54 17 29 1007.7 - 0.0
01/09:24am 14.3 6.4 1.2 41 5.6 W 32 48 17 26 1007.7 - 0.0
01/09:00am 15.2 9.9 3.0 44 5.5 WNW 20 26 11 14 1007.5 1007.5 0.0
01/08:30am 13.5 9.3 3.8 52 4.4 WNW 15 24 8 13 1007.5 - 0.0
01/08:00am 14.1 8.4 4.9 54 4.3 WSW 24 37 13 20 1007.5 1007.5 0.0
01/07:30am 12.9 9.3 5.1 59 3.6 W 13 19 7 10 1006.8 - 0.0
01/07:00am 12.5 7.5 4.5 58 3.7 W 20 32 11 17 1006.4 1006.4 0.0
01/06:30am 13.8 8.4 4.7 54 4.2 W 22 35 12 19 1006.1 - 0.0
01/06:00am 14.7 8.5 4.4 50 4.8 W 26 35 14 19 1005.6 1005.6 0.0
01/05:38am 15.3 8.6 3.5 45 5.4 W 28 46 15 25 1005.1 - 0.0
01/05:30am 14.9 9.1 2.1 42 5.6 WSW 22 35 12 19 1004.8 - 0.0
01/05:00am 16.2 8.0 0.3 34 6.9 WSW 33 41 18 22 1004.0 1004.0 0.0
01/04:30am 16.3 10.8 0.8 35 6.7 WNW 19 24 10 13 1003.4 - 0.0
01/04:18am 14.6 10.1 2.2 43 5.5 W 15 28 8 15 1003.3 - 0.0
01/04:00am 9.4 6.0 2.0 60 3.1 WSW 9 17 5 9 1003.1 1003.1 0.0
01/03:30am 10.0 6.9 1.4 55 3.6 SW 7 13 4 7 1003.0 - 0.0
01/03:00am 12.5 10.2 0.6 44 5.0 WSW 2 11 1 6 1002.4 1002.4 0.0
01/02:53am 12.6 9.5 0.4 43 5.1 WSW 6 17 3 9 1002.5 - 0.0
01/02:30am 17.7 13.6 2.1 35 7.1 ENE 13 13 7 7 1002.6 - 0.0
01/02:28am 18.3 12.8 0.9 31 7.7 N 19 26 10 14 1002.7 - 0.0
01/02:00am 12.4 9.3 1.1 46 4.8 W 7 19 4 10 1002.9 1002.9 0.0
01/01:30am 14.0 10.0 0.6 40 5.7 N 11 19 6 10 1003.2 - 0.0
01/01:00am 16.9 12.8 4.6 44 5.8 NNE 15 24 8 13 1003.5 1003.5 0.0
01/12:30am 17.0 12.7 3.0 39 6.4 NNE 15 22 8 12 1003.7 - 0.0
01/12:00am 13.8 10.4 1.8 44 5.2 NNW 9 17 5 9 1004.2 1004.2 0.0
 
Date/Time
EST
Temp
°C
App
Temp
°C
Dew
Point
Rel
Hum
%
Delta-T
°C
Wind Press
QNH
hPa
Press
MSL
hPa
Rain
since 9 am
mm
Dir
 
Spd
km/h
Gust
km/h
Spd
kts
Gust
kts
31/11:30pm 17.0 12.1 1.8 36 6.8 NE 17 24 9 13 1004.4 - 0.0
31/11:00pm 17.1 12.2 1.9 36 6.8 NE 17 22 9 12 1004.5 1004.5 0.0
31/10:30pm 17.2 12.6 1.6 35 6.9 NE 15 19 8 10 1004.6 - 0.0
31/10:00pm 17.6 13.3 1.2 33 7.3 NNE 13 17 7 9 1004.6 1004.6 0.0
31/09:30pm 19.2 14.4 0.3 28 8.3 N 15 24 8 13 1004.6 - 0.0
31/09:00pm 19.4 13.9 0.4 28 8.4 N 19 26 10 14 1004.3 1004.3 0.0
31/08:30pm 19.9 13.7 -0.1 26 8.8 N 22 37 12 20 1004.3 - 0.0
31/08:00pm 20.0 14.3 0.5 27 8.7 N 20 32 11 17 1004.3 1004.3 0.0
31/07:30pm 20.1 14.6 0.5 27 8.7 N 19 28 10 15 1004.5 - 0.0
31/07:00pm 20.4 15.2 0.3 26 9.0 N 17 28 9 15 1004.5 1004.5 0.0
31/06:30pm 20.9 15.1 0.2 25 9.2 N 20 35 11 19 1004.2 - 0.0
31/06:00pm 21.7 16.5 0.3 24 9.7 N 17 28 9 15 1004.3 1004.3 0.0
31/05:35pm 22.5 15.2 -0.3 22 10.2 N 28 50 15 27 1004.2 - 0.0
31/05:30pm 22.4 16.6 -0.3 22 10.2 N 20 50 11 27 1004.1 - 0.0
31/05:00pm 22.7 16.1 -0.7 21 10.5 N 24 50 13 27 1004.1 1004.1 0.0
31/04:56pm 23.1 15.7 -0.4 21 10.6 N 28 50 15 27 1004.0 - 0.0
31/04:30pm 23.8 16.8 -0.5 20 11.0 N 26 37 14 20 1004.4 - 0.0
31/04:01pm 24.5 16.4 -0.6 19 11.4 NW 32 50 17 27 1004.6 - 0.0
31/04:00pm 24.5 16.1 -1.3 18 11.6 NW 33 50 18 27 1004.4 1004.4 0.0
31/03:35pm 24.9 16.1 -1.0 18 11.7 NNW 35 54 19 29 1004.4 - 0.0
31/03:30pm 25.0 15.8 -1.7 17 11.9 NNW 37 54 20 29 1004.3 - 0.0
31/03:00pm 25.6 16.9 -0.5 18 12.0 NW 35 59 19 32 1004.8 1004.8 0.0
31/02:30pm 25.6 17.8 -0.5 18 11.9 NW 30 50 16 27 1005.2 - 0.0
31/02:03pm 25.6 16.1 -0.5 18 11.9 NNW 39 57 21 31 1005.5 - 0.0
31/02:00pm 25.7 15.2 -1.2 17 12.2 NNW 44 57 24 31 1005.3 1005.3 0.0
31/01:59pm 25.6 14.7 -1.2 17 12.1 NNW 46 57 25 31 1005.2 - 0.0
31/01:43pm 25.6 18.0 0.3 19 11.8 WNW 30 48 16 26 1005.9 - 0.0
31/01:30pm 25.7 17.7 0.4 19 11.8 WNW 32 48 17 26 1006.1 - 0.0
31/01:00pm 25.4 16.8 0.1 19 11.7 WNW 35 50 19 27 1006.7 1006.7 0.0
31/12:53pm 25.3 18.0 0.0 19 11.7 NW 28 46 15 25 1006.8 - 0.0
31/12:30pm 25.1 17.0 1.3 21 11.2 NW 33 48 18 26 1007.5 - 0.0
31/12:19pm 24.7 17.4 0.3 20 11.3 NNW 28 32 15 17 1007.9 - 0.0
31/12:15pm 25.0 16.2 1.2 21 11.2 WNW 37 46 20 25 1008.0 - 0.0
31/12:06pm 24.4 17.1 0.0 20 11.2 NNW 28 50 15 27 1008.1 - 0.0
31/12:00pm 24.8 17.4 1.7 22 11.0 WNW 30 43 16 23 1008.4 1008.4 0.0
31/11:30am 23.5 18.8 2.9 26 9.9 W 17 32 9 17 1009.7 - 0.0
31/11:00am 22.5 17.4 4.1 30 9.0 N 20 33 11 18 1010.5 1010.5 0.0
31/10:30am 21.5 16.0 4.1 32 8.4 N 22 32 12 17 1011.2 - 0.0
31/10:00am 20.9 15.8 4.0 33 8.1 NNW 20 26 11 14 1011.7 1011.7 0.0
31/09:30am 20.5 16.7 3.7 33 8.0 NNW 13 20 7 11 1012.0 - 0.0
31/09:00am 20.1 15.4 3.3 33 7.9 N 17 22 9 12 1012.5 1012.5 0.0
31/08:30am 19.4 16.1 4.7 38 7.1 NW 11 28 6 15 1012.8 - 0.0
31/08:00am 18.4 15.2 4.9 41 6.5 NW 11 15 6 8 1012.8 1012.8 0.0
31/07:30am 17.9 12.0 4.1 40 6.5 NW 24 39 13 21 1012.9 - 0.0
31/07:00am 18.0 8.0 4.2 40 6.5 WNW 46 69 25 37 1012.4 1012.4 0.0
31/06:32am 18.0 10.1 4.6 41 6.4 WNW 35 57 19 31 1012.0 - 0.0
31/06:30am 17.8 10.3 4.4 41 6.4 WNW 33 44 18 24 1012.2 - 0.0
31/06:00am 17.7 10.3 5.0 43 6.1 W 33 46 18 25 1012.2 1012.2 0.0
31/05:30am 17.6 10.3 5.5 45 5.9 WNW 33 56 18 30 1012.2 - 0.0
31/05:14am 17.3 11.0 5.9 47 5.6 WNW 28 46 15 25 1012.3 - 0.0
31/05:00am 17.2 12.1 5.8 47 5.5 WNW 22 32 12 17 1012.5 1012.5 0.0
31/04:30am 17.9 11.8 6.4 47 5.7 NW 28 46 15 25 1012.2 - 0.0
31/04:18am 16.6 11.4 7.3 54 4.6 NW 24 33 13 18 1012.1 - 0.0
31/04:00am 11.5 8.9 7.6 77 1.9 NW 11 20 6 11 1012.6 1012.6 0.0
31/03:30am 7.5 5.6 6.9 96 0.3 S 6 11 3 6 1012.8 - 0.0
31/03:00am 5.2 2.3 4.9 98 0.1 NNE 9 17 5 9 1013.3 1013.3 0.0
31/02:30am 4.2 1.7 3.6 96 0.2 W 6 13 3 7 1013.6 - 0.0
31/02:00am 5.6 3.7 5.0 96 0.3 W 4 9 2 5 1014.0 1014.0 0.0
31/01:30am 6.1 5.1 5.4 95 0.3 CALM 0 0 0 0 1014.3 - 0.0
31/01:00am 6.6 5.6 5.7 94 0.4 CALM 0 0 0 0 1014.7 1014.7 0.0
31/12:30am 7.3 6.4 6.2 93 0.5 CALM 0 0 0 0 1015.0 - 0.0
31/12:00am 7.8 5.7 6.6 92 0.6 W 7 9 4 5 1015.3 1015.3 0.0
 
Date/Time
EST
Temp
°C
App
Temp
°C
Dew
Point
Rel
Hum
%
Delta-T
°C
Wind Press
QNH
hPa
Press
MSL
hPa
Rain
since 9 am
mm
Dir
 
Spd
km/h
Gust
km/h
Spd
kts
Gust
kts
30/11:30pm 7.8 5.8 6.3 90 0.7 W 6 7 3 4 1015.6 - 0.0
30/11:00pm 8.7 7.7 7.2 90 0.7 WSW 2 9 1 5 1015.9 1015.9 0.0
30/10:30pm 9.0 7.4 6.4 84 1.2 WSW 4 7 2 4 1016.0 - 0.0
30/10:00pm 10.8 10.1 7.1 78 1.8 CALM 0 0 0 0 1016.1 1016.1 0.0
30/09:30pm 11.3 9.4 6.6 73 2.2 W 6 11 3 6 1016.4 - 0.0
30/09:00pm 13.1 11.1 6.9 66 3.0 NW 7 9 4 5 1016.3 1016.3 0.0
30/08:30pm 14.7 13.0 7.7 63 3.5 WNW 6 13 3 7 1016.4 - 0.0
30/08:00pm 15.8 14.0 8.1 60 3.9 WNW 7 15 4 8 1016.4 1016.4 0.0
30/07:30pm 16.8 13.8 7.7 55 4.6 NW 13 20 7 11 1016.5 - 0.0
30/07:00pm 17.1 13.8 8.0 55 4.6 NW 15 20 8 11 1016.2 1016.2 0.0
30/06:30pm 17.2 13.7 7.3 52 5.0 WNW 15 22 8 12 1016.2 - 0.0
30/06:00pm 18.0 13.8 7.4 50 5.3 WNW 19 20 10 11 1016.0 1016.0 0.0
30/05:30pm 17.6 14.4 6.8 49 5.4 WSW 13 15 7 8 1015.6 - 0.0
30/05:00pm 19.2 13.2 7.0 45 6.1 WNW 28 41 15 22 1015.0 1015.0 0.0
30/04:30pm 19.9 13.2 7.3 44 6.4 W 32 48 17 26 1014.8 - 0.0
30/04:02pm 20.1 14.1 7.1 43 6.6 W 28 46 15 25 1014.6 - 0.0
30/04:00pm 20.2 14.3 7.6 44 6.5 W 28 41 15 22 1014.7 1014.7 0.0
30/03:30pm 20.6 13.2 6.9 41 7.0 WNW 35 54 19 29 1014.4 - 0.0
30/03:12pm 21.2 14.4 6.7 39 7.4 WNW 32 52 17 28 1014.4 - 0.0
30/03:00pm 22.1 15.8 7.5 39 7.6 WNW 30 44 16 24 1014.2 1014.2 0.0
30/02:30pm 21.8 14.1 6.9 38 7.6 W 37 56 20 30 1014.3 - 0.0
30/02:09pm 21.8 14.1 6.9 38 7.6 WNW 37 57 20 31 1014.3 - 0.0

Other Formats:

Comma delimited format used in spreadsheet applications
http://www.bom.gov.au/fwo/IDN60801/IDN60801.95748.axf

JavaScript Object Notation format (JSON) in row-major order
http://www.bom.gov.au/fwo/IDN60801/IDN60801.95748.json